AAL771 KDFW-CYYZ
Flight info
| Callsign | AAL771 |
|---|---|
| Flight time | N/A |
| Altitude | 37000 |
| Route | AKUNA9 MLC DCT RZC DCT BACTA DCT STL DCT BEKKI DCT GSH DCT SVM DCT QWERI NUBER6 |
| Aircraft | B38M/M-SDE1FGHILORVWXY/HB1 |
Departure
| Time | 2026-04-30 20:55 |
|---|---|
| Airport | Dallas Fort Worth International Airport (KDFW) |
Arrival
| Time | N/A |
|---|---|
| Airport | Toronto Pearson International Airport (CYYZ) |
| Time | Latitude | Longitude | Altitude | Speed | Heading |
|---|---|---|---|---|---|
| 2026-04-30 20:39 | 32.89880 | -97.03505 | 567 ft | 0 kts | 263° |
| 2026-04-30 20:48 | 32.89880 | -97.03503 | 626 ft | 1 kts | 263° |
| 2026-04-30 20:48 | 32.89882 | -97.03484 | 627 ft | 3 kts | 261° |
| 2026-04-30 20:48 | 32.89886 | -97.03460 | 627 ft | 3 kts | 259° |
| 2026-04-30 20:49 | 32.89890 | -97.03436 | 628 ft | 3 kts | 257° |
| 2026-04-30 20:49 | 32.89894 | -97.03413 | 626 ft | 3 kts | 255° |
| 2026-04-30 20:49 | 32.89897 | -97.03402 | 618 ft | 1 kts | 254° |
| 2026-04-30 20:50 | 32.89896 | -97.03405 | 618 ft | 1 kts | 249° |
| 2026-04-30 20:50 | 32.89886 | -97.03418 | 632 ft | 3 kts | 219° |
| 2026-04-30 20:50 | 32.89863 | -97.03423 | 623 ft | 4 kts | 169° |
| 2026-04-30 20:51 | 32.89829 | -97.03384 | 627 ft | 12 kts | 127° |
| 2026-04-30 20:51 | 32.89635 | -97.03194 | 625 ft | 22 kts | 179° |
| 2026-04-30 20:51 | 32.89482 | -97.03194 | 624 ft | 22 kts | 181° |
| 2026-04-30 20:52 | 32.89329 | -97.03194 | 622 ft | 24 kts | 180° |
| 2026-04-30 20:52 | 32.89144 | -97.03196 | 625 ft | 29 kts | 181° |
| 2026-04-30 20:52 | 32.88683 | -97.03199 | 625 ft | 33 kts | 182° |
| 2026-04-30 20:53 | 32.88473 | -97.03203 | 625 ft | 28 kts | 180° |
| 2026-04-30 20:53 | 32.88287 | -97.03201 | 624 ft | 26 kts | 180° |
| 2026-04-30 20:53 | 32.88118 | -97.03200 | 623 ft | 22 kts | 171° |
| 2026-04-30 20:54 | 32.88106 | -97.03006 | 628 ft | 12 kts | 1° |
| 2026-04-30 20:54 | 32.88267 | -97.03005 | 618 ft | 54 kts | 0° |
| 2026-04-30 20:54 | 32.88919 | -97.03003 | 625 ft | 131 kts | 0° |
| 2026-04-30 20:55 | 32.91291 | -97.03039 | 1644 ft | 190 kts | 1° |
| 2026-04-30 20:55 | 32.92629 | -97.03052 | 2651 ft | 196 kts | 4° |
| 2026-04-30 20:55 | 32.94114 | -97.03007 | 3088 ft | 231 kts | 5° |
| 2026-04-30 20:56 | 32.97567 | -97.02873 | 4816 ft | 256 kts | 3° |
| 2026-04-30 20:56 | 32.99394 | -97.02805 | 5671 ft | 268 kts | 0° |
| 2026-04-30 20:56 | 33.03169 | -97.02670 | 7647 ft | 274 kts | 358° |
| 2026-04-30 20:57 | 33.05082 | -97.02603 | 8683 ft | 275 kts | 356° |
| 2026-04-30 20:57 | 33.07011 | -97.02523 | 9720 ft | 274 kts | 358° |
| 2026-04-30 20:57 | 33.08990 | -97.01928 | 9950 ft | 312 kts | 22° |
| 2026-04-30 20:58 | 33.13008 | -96.99667 | 11183 ft | 335 kts | 18° |
| 2026-04-30 20:58 | 33.15177 | -96.98512 | 11776 ft | 347 kts | 18° |
| 2026-04-30 20:58 | 33.17386 | -96.97322 | 12568 ft | 350 kts | 18° |
| 2026-04-30 20:58 | 33.19623 | -96.96114 | 13319 ft | 356 kts | 18° |
| 2026-04-30 20:59 | 33.24188 | -96.93646 | 14701 ft | 365 kts | 17° |
| 2026-04-30 20:59 | 33.26511 | -96.92391 | 15353 ft | 369 kts | 17° |
| 2026-04-30 21:00 | 33.31252 | -96.89820 | 16623 ft | 378 kts | 17° |
| 2026-04-30 21:00 | 33.36098 | -96.87191 | 17886 ft | 387 kts | 17° |
| 2026-04-30 21:01 | 33.41052 | -96.84501 | 19034 ft | 394 kts | 17° |
| 2026-04-30 21:01 | 33.43558 | -96.83139 | 19601 ft | 397 kts | 17° |
| 2026-04-30 21:01 | 33.48488 | -96.80052 | 20710 ft | 406 kts | 21° |
| 2026-04-30 21:02 | 33.50985 | -96.78443 | 21222 ft | 409 kts | 20° |
| 2026-04-30 21:02 | 33.53507 | -96.76825 | 21745 ft | 413 kts | 20° |
| 2026-04-30 21:02 | 33.56044 | -96.75201 | 22242 ft | 416 kts | 20° |
| 2026-04-30 21:02 | 33.58618 | -96.73554 | 22730 ft | 420 kts | 20° |
| 2026-04-30 21:03 | 33.61206 | -96.71897 | 23219 ft | 424 kts | 20° |
| 2026-04-30 21:03 | 33.63817 | -96.70224 | 23679 ft | 427 kts | 20° |
| 2026-04-30 21:03 | 33.66450 | -96.68537 | 24057 ft | 431 kts | 19° |
| 2026-04-30 21:03 | 33.69103 | -96.66835 | 24455 ft | 433 kts | 19° |
| 2026-04-30 21:04 | 33.71771 | -96.65121 | 24847 ft | 437 kts | 19° |
| 2026-04-30 21:04 | 33.74457 | -96.63395 | 25245 ft | 439 kts | 18° |
| 2026-04-30 21:04 | 33.79884 | -96.59905 | 26014 ft | 445 kts | 18° |
| 2026-04-30 21:05 | 33.82623 | -96.58141 | 26404 ft | 448 kts | 18° |
| 2026-04-30 21:05 | 33.85379 | -96.56366 | 26759 ft | 451 kts | 18° |
| 2026-04-30 21:05 | 33.88151 | -96.54577 | 27134 ft | 453 kts | 17° |
| 2026-04-30 21:05 | 33.90937 | -96.52779 | 27498 ft | 456 kts | 17° |
| 2026-04-30 21:06 | 33.93741 | -96.50968 | 27854 ft | 458 kts | 17° |
| 2026-04-30 21:06 | 33.96554 | -96.49151 | 28215 ft | 461 kts | 17° |
| 2026-04-30 21:06 | 33.99387 | -96.47318 | 28572 ft | 463 kts | 17° |
| 2026-04-30 21:06 | 34.02236 | -96.45474 | 28914 ft | 466 kts | 17° |
| 2026-04-30 21:07 | 34.05096 | -96.43622 | 29251 ft | 468 kts | 17° |
| 2026-04-30 21:07 | 34.07904 | -96.41538 | 29593 ft | 482 kts | 25° |
| 2026-04-30 21:07 | 34.10638 | -96.39212 | 29962 ft | 481 kts | 23° |
| 2026-04-30 21:07 | 34.13407 | -96.36923 | 30231 ft | 484 kts | 23° |
| 2026-04-30 21:08 | 34.16195 | -96.34642 | 30507 ft | 485 kts | 23° |
| 2026-04-30 21:08 | 34.18999 | -96.32359 | 30776 ft | 487 kts | 22° |
| 2026-04-30 21:08 | 34.21820 | -96.30064 | 31020 ft | 490 kts | 22° |
| 2026-04-30 21:08 | 34.24649 | -96.27762 | 31272 ft | 492 kts | 22° |
| 2026-04-30 21:09 | 34.27495 | -96.25444 | 31527 ft | 494 kts | 23° |
| 2026-04-30 21:09 | 34.30352 | -96.23116 | 31777 ft | 496 kts | 23° |
| 2026-04-30 21:09 | 34.33225 | -96.20772 | 32026 ft | 499 kts | 23° |
| 2026-04-30 21:09 | 34.36108 | -96.18418 | 32284 ft | 501 kts | 23° |
| 2026-04-30 21:10 | 34.39003 | -96.16052 | 32531 ft | 503 kts | 23° |
| 2026-04-30 21:10 | 34.41911 | -96.13675 | 32751 ft | 506 kts | 23° |
| 2026-04-30 21:10 | 34.44835 | -96.11281 | 33006 ft | 508 kts | 23° |
| 2026-04-30 21:10 | 34.47769 | -96.08878 | 33224 ft | 511 kts | 23° |
| 2026-04-30 21:11 | 34.50719 | -96.06459 | 33472 ft | 513 kts | 23° |
| 2026-04-30 21:11 | 34.53640 | -96.04062 | 33728 ft | 515 kts | 23° |
| 2026-04-30 21:11 | 34.56651 | -96.01589 | 33957 ft | 517 kts | 23° |
| 2026-04-30 21:11 | 34.59590 | -95.99172 | 34250 ft | 517 kts | 22° |
| 2026-04-30 21:12 | 34.62562 | -95.96727 | 34591 ft | 515 kts | 22° |
| 2026-04-30 21:12 | 34.65559 | -95.94259 | 34967 ft | 512 kts | 22° |
| 2026-04-30 21:12 | 34.68459 | -95.91868 | 35319 ft | 510 kts | 22° |
| 2026-04-30 21:12 | 34.71390 | -95.89451 | 35645 ft | 508 kts | 22° |
| 2026-04-30 21:13 | 34.74301 | -95.87047 | 35959 ft | 506 kts | 22° |
| 2026-04-30 21:13 | 34.77206 | -95.84647 | 36272 ft | 504 kts | 22° |
| 2026-04-30 21:13 | 34.80100 | -95.82253 | 36578 ft | 502 kts | 21° |
| 2026-04-30 21:13 | 34.82980 | -95.79871 | 36867 ft | 500 kts | 21° |
| 2026-04-30 21:14 | 34.85786 | -95.77315 | 37028 ft | 514 kts | 31° |
| 2026-04-30 21:14 | 34.88371 | -95.74276 | 37074 ft | 516 kts | 32° |
| 2026-04-30 21:14 | 34.93548 | -95.68249 | 37056 ft | 514 kts | 32° |
| 2026-04-30 21:15 | 34.98721 | -95.62229 | 37057 ft | 514 kts | 32° |
| 2026-04-30 21:15 | 35.03893 | -95.56198 | 37057 ft | 515 kts | 32° |
| 2026-04-30 21:16 | 35.09069 | -95.50153 | 37067 ft | 515 kts | 32° |
| 2026-04-30 21:16 | 35.14244 | -95.44097 | 37072 ft | 516 kts | 32° |
| 2026-04-30 21:17 | 35.19422 | -95.38027 | 37066 ft | 516 kts | 32° |
| 2026-04-30 21:17 | 35.24604 | -95.31939 | 37066 ft | 517 kts | 32° |
| 2026-04-30 21:18 | 35.29784 | -95.25843 | 37066 ft | 517 kts | 32° |
| 2026-04-30 21:18 | 35.34967 | -95.19734 | 37058 ft | 518 kts | 32° |
| 2026-04-30 21:19 | 35.40156 | -95.13604 | 37062 ft | 518 kts | 33° |
| 2026-04-30 21:19 | 35.45343 | -95.07466 | 37067 ft | 519 kts | 33° |
| 2026-04-30 21:20 | 35.50536 | -95.01309 | 37071 ft | 519 kts | 33° |
| 2026-04-30 21:20 | 35.54851 | -94.96186 | 37059 ft | 519 kts | 33° |
| 2026-04-30 21:21 | 35.60887 | -94.89000 | 37072 ft | 520 kts | 33° |
| 2026-04-30 21:22 | 35.68668 | -94.79718 | 37081 ft | 520 kts | 33° |
| 2026-04-30 21:23 | 35.78161 | -94.68356 | 37089 ft | 520 kts | 33° |
| 2026-04-30 21:23 | 35.85951 | -94.59004 | 37093 ft | 519 kts | 33° |
| 2026-04-30 21:24 | 35.91089 | -94.52820 | 37093 ft | 519 kts | 33° |
| 2026-04-30 21:24 | 35.96256 | -94.46590 | 37104 ft | 519 kts | 33° |
| 2026-04-30 21:25 | 36.03990 | -94.37240 | 37088 ft | 518 kts | 33° |
| 2026-04-30 21:26 | 36.11708 | -94.27884 | 37081 ft | 518 kts | 33° |
| 2026-04-30 21:27 | 36.19413 | -94.18520 | 37098 ft | 517 kts | 33° |
| 2026-04-30 21:27 | 36.24524 | -94.12231 | 37089 ft | 523 kts | 38° |
| 2026-04-30 21:28 | 36.31701 | -94.01954 | 37107 ft | 525 kts | 38° |
| 2026-04-30 21:29 | 36.38936 | -93.91738 | 37107 ft | 525 kts | 38° |
| 2026-04-30 21:30 | 36.50984 | -93.74672 | 37091 ft | 526 kts | 38° |
| 2026-04-30 21:31 | 36.63025 | -93.57528 | 37081 ft | 527 kts | 38° |
| 2026-04-30 21:32 | 36.70246 | -93.47206 | 37081 ft | 527 kts | 38° |
| 2026-04-30 21:32 | 36.75057 | -93.40309 | 37079 ft | 527 kts | 38° |
| 2026-04-30 21:33 | 36.82279 | -93.29930 | 37080 ft | 528 kts | 38° |
| 2026-04-30 21:34 | 36.87087 | -93.23001 | 37080 ft | 528 kts | 38° |
| 2026-04-30 21:34 | 36.94303 | -93.12576 | 37089 ft | 529 kts | 38° |
| 2026-04-30 21:35 | 36.99083 | -93.05654 | 37088 ft | 530 kts | 38° |
| 2026-04-30 21:35 | 37.03927 | -92.98622 | 37083 ft | 530 kts | 38° |
| 2026-04-30 21:36 | 37.08705 | -92.91672 | 37086 ft | 531 kts | 38° |
| 2026-04-30 21:37 | 37.18330 | -92.77626 | 37087 ft | 531 kts | 38° |
| 2026-04-30 21:37 | 37.23140 | -92.70585 | 37082 ft | 532 kts | 38° |
| 2026-04-30 21:38 | 37.27951 | -92.63527 | 37081 ft | 532 kts | 38° |
| 2026-04-30 21:38 | 37.32757 | -92.56461 | 37090 ft | 532 kts | 38° |
| 2026-04-30 21:39 | 37.37562 | -92.49380 | 37081 ft | 532 kts | 38° |
| 2026-04-30 21:39 | 37.42364 | -92.42290 | 37083 ft | 532 kts | 38° |
| 2026-04-30 21:40 | 37.47163 | -92.35189 | 37087 ft | 533 kts | 38° |
| 2026-04-30 21:40 | 37.51953 | -92.28084 | 37070 ft | 532 kts | 38° |
| 2026-04-30 21:41 | 37.56741 | -92.20969 | 37070 ft | 532 kts | 38° |
| 2026-04-30 21:41 | 37.61521 | -92.13850 | 37061 ft | 532 kts | 38° |
| 2026-04-30 21:42 | 37.66265 | -92.06772 | 37057 ft | 531 kts | 38° |
| 2026-04-30 21:42 | 37.71062 | -91.99599 | 37054 ft | 531 kts | 39° |
| 2026-04-30 21:43 | 37.75853 | -91.92604 | 37060 ft | 524 kts | 34° |
| 2026-04-30 21:43 | 37.80929 | -91.86018 | 37078 ft | 523 kts | 34° |
| 2026-04-30 21:44 | 37.86025 | -91.79472 | 37093 ft | 522 kts | 34° |
| 2026-04-30 21:44 | 37.91115 | -91.72927 | 37082 ft | 521 kts | 34° |
| 2026-04-30 21:45 | 37.96198 | -91.66377 | 37096 ft | 521 kts | 34° |
| 2026-04-30 21:45 | 38.01277 | -91.59820 | 37086 ft | 521 kts | 34° |
| 2026-04-30 21:46 | 38.06353 | -91.53252 | 37092 ft | 521 kts | 34° |
| 2026-04-30 21:46 | 38.11427 | -91.46672 | 37089 ft | 521 kts | 34° |
| 2026-04-30 21:47 | 38.16494 | -91.40088 | 37091 ft | 521 kts | 34° |
| 2026-04-30 21:47 | 38.21562 | -91.33489 | 37087 ft | 522 kts | 34° |
| 2026-04-30 21:48 | 38.26625 | -91.26882 | 37084 ft | 522 kts | 34° |
| 2026-04-30 21:48 | 38.31687 | -91.20263 | 37086 ft | 522 kts | 34° |
| 2026-04-30 21:49 | 38.36713 | -91.13676 | 37086 ft | 522 kts | 34° |
| 2026-04-30 21:49 | 38.41771 | -91.07035 | 37064 ft | 522 kts | 34° |
| 2026-04-30 21:50 | 38.46861 | -91.00336 | 37064 ft | 522 kts | 34° |
| 2026-04-30 21:50 | 38.51873 | -90.93726 | 37062 ft | 522 kts | 34° |
| 2026-04-30 21:51 | 38.56918 | -90.87056 | 37054 ft | 522 kts | 34° |
| 2026-04-30 21:51 | 38.61959 | -90.80380 | 37067 ft | 522 kts | 34° |
| 2026-04-30 21:52 | 38.66996 | -90.73693 | 37068 ft | 522 kts | 34° |
| 2026-04-30 21:52 | 38.72033 | -90.66992 | 37073 ft | 522 kts | 34° |
| 2026-04-30 21:53 | 38.77063 | -90.60287 | 37071 ft | 522 kts | 34° |
| 2026-04-30 21:53 | 38.82090 | -90.53574 | 37069 ft | 522 kts | 34° |
| 2026-04-30 21:54 | 38.87063 | -90.46769 | 37070 ft | 525 kts | 37° |
| 2026-04-30 21:54 | 38.91951 | -90.39796 | 37069 ft | 524 kts | 36° |
| 2026-04-30 21:55 | 38.96832 | -90.32856 | 37066 ft | 524 kts | 36° |
| 2026-04-30 21:55 | 39.01719 | -90.25896 | 37068 ft | 524 kts | 37° |
| 2026-04-30 21:56 | 39.06596 | -90.18934 | 37063 ft | 523 kts | 37° |
| 2026-04-30 21:56 | 39.11461 | -90.11974 | 37062 ft | 523 kts | 37° |
| 2026-04-30 21:57 | 39.16316 | -90.05011 | 37066 ft | 522 kts | 37° |
| 2026-04-30 21:57 | 39.21157 | -89.98053 | 37057 ft | 521 kts | 37° |
| 2026-04-30 21:58 | 39.25989 | -89.91095 | 37068 ft | 521 kts | 37° |
| 2026-04-30 21:58 | 39.30819 | -89.84123 | 37066 ft | 520 kts | 38° |
| 2026-04-30 21:59 | 39.35637 | -89.77151 | 37061 ft | 520 kts | 38° |
| 2026-04-30 22:00 | 39.42845 | -89.66693 | 37066 ft | 519 kts | 38° |
| 2026-04-30 22:00 | 39.50030 | -89.56253 | 37066 ft | 515 kts | 36° |
| 2026-04-30 22:01 | 39.52659 | -89.53288 | 36920 ft | 500 kts | 33° |
| 2026-04-30 22:01 | 39.54845 | -89.49687 | 37158 ft | 522 kts | 54° |
| 2026-04-30 22:01 | 39.58816 | -89.41945 | 37055 ft | 502 kts | 31° |
| 2026-04-30 22:02 | 39.63931 | -89.35760 | 37085 ft | 513 kts | 38° |
| 2026-04-30 22:02 | 39.68720 | -89.28851 | 37058 ft | 515 kts | 39° |
| 2026-04-30 22:03 | 39.73426 | -89.21930 | 37069 ft | 515 kts | 39° |
| 2026-04-30 22:03 | 39.78153 | -89.14950 | 37053 ft | 514 kts | 39° |
| 2026-04-30 22:04 | 39.82872 | -89.07970 | 37048 ft | 514 kts | 39° |
| 2026-04-30 22:05 | 39.89938 | -88.97486 | 37040 ft | 513 kts | 39° |
| 2026-04-30 22:05 | 39.94635 | -88.90497 | 37044 ft | 512 kts | 40° |
| 2026-04-30 22:06 | 39.99322 | -88.83507 | 37043 ft | 512 kts | 40° |
| 2026-04-30 22:06 | 40.06339 | -88.73014 | 37054 ft | 511 kts | 40° |
| 2026-04-30 22:07 | 40.11004 | -88.66019 | 37058 ft | 510 kts | 40° |
| 2026-04-30 22:07 | 40.15660 | -88.59019 | 37053 ft | 510 kts | 40° |
| 2026-04-30 22:08 | 40.20308 | -88.52020 | 37053 ft | 509 kts | 40° |
| 2026-04-30 22:08 | 40.24948 | -88.45017 | 37053 ft | 509 kts | 41° |
| 2026-04-30 22:09 | 40.29579 | -88.38013 | 37037 ft | 508 kts | 41° |
| 2026-04-30 22:09 | 40.33224 | -88.31934 | 37056 ft | 514 kts | 47° |
| 2026-04-30 22:10 | 40.37364 | -88.24280 | 37035 ft | 514 kts | 47° |
| 2026-04-30 22:10 | 40.41478 | -88.16632 | 37041 ft | 513 kts | 47° |
| 2026-04-30 22:11 | 40.47636 | -88.05152 | 37052 ft | 512 kts | 48° |
| 2026-04-30 22:12 | 40.51727 | -87.97501 | 37056 ft | 512 kts | 48° |
| 2026-04-30 22:12 | 40.55812 | -87.89844 | 37062 ft | 511 kts | 48° |
| 2026-04-30 22:13 | 40.59885 | -87.82190 | 37068 ft | 511 kts | 48° |
| 2026-04-30 22:13 | 40.63948 | -87.74535 | 37064 ft | 510 kts | 48° |
| 2026-04-30 22:14 | 40.68006 | -87.66872 | 37061 ft | 509 kts | 49° |
| 2026-04-30 22:14 | 40.72053 | -87.59211 | 37050 ft | 509 kts | 49° |
| 2026-04-30 22:15 | 40.76089 | -87.51551 | 37055 ft | 509 kts | 49° |
| 2026-04-30 22:15 | 40.80116 | -87.43890 | 37046 ft | 508 kts | 49° |
| 2026-04-30 22:16 | 40.84133 | -87.36227 | 37046 ft | 507 kts | 49° |
| 2026-04-30 22:17 | 40.92146 | -87.20890 | 37040 ft | 507 kts | 49° |
| 2026-04-30 22:17 | 40.98134 | -87.09376 | 37036 ft | 506 kts | 49° |
| 2026-04-30 22:18 | 41.04114 | -86.97836 | 37042 ft | 506 kts | 50° |
| 2026-04-30 22:19 | 41.10076 | -86.86288 | 37034 ft | 506 kts | 50° |
| 2026-04-30 22:20 | 41.16022 | -86.74727 | 37023 ft | 506 kts | 50° |
| 2026-04-30 22:20 | 41.21955 | -86.63146 | 37011 ft | 505 kts | 50° |
| 2026-04-30 22:21 | 41.25900 | -86.55424 | 37014 ft | 505 kts | 50° |
| 2026-04-30 22:21 | 41.29811 | -86.47746 | 37013 ft | 505 kts | 50° |
| 2026-04-30 22:22 | 41.33742 | -86.40011 | 37033 ft | 505 kts | 50° |
| 2026-04-30 22:22 | 41.37667 | -86.32270 | 37036 ft | 504 kts | 50° |
| 2026-04-30 22:23 | 41.41584 | -86.24524 | 37043 ft | 504 kts | 50° |
| 2026-04-30 22:23 | 41.45494 | -86.16775 | 37038 ft | 504 kts | 51° |
| 2026-04-30 22:24 | 41.49402 | -86.09013 | 37046 ft | 504 kts | 51° |
| 2026-04-30 22:24 | 41.53159 | -86.01112 | 37030 ft | 507 kts | 59° |
| 2026-04-30 22:25 | 41.56340 | -85.92683 | 37031 ft | 508 kts | 59° |
| 2026-04-30 22:25 | 41.59513 | -85.84263 | 37017 ft | 507 kts | 59° |
| 2026-04-30 22:26 | 41.64261 | -85.71616 | 37029 ft | 507 kts | 59° |
| 2026-04-30 22:27 | 41.67412 | -85.63193 | 37039 ft | 506 kts | 59° |
| 2026-04-30 22:27 | 41.72122 | -85.50552 | 37032 ft | 506 kts | 59° |
| 2026-04-30 22:28 | 41.76814 | -85.37908 | 37034 ft | 505 kts | 59° |
| 2026-04-30 22:29 | 41.83036 | -85.21052 | 37043 ft | 504 kts | 60° |
| 2026-04-30 22:31 | 41.93840 | -84.91547 | 37038 ft | 503 kts | 60° |
| 2026-04-30 22:32 | 42.01499 | -84.70441 | 37030 ft | 502 kts | 60° |
| 2026-04-30 22:33 | 42.09087 | -84.49376 | 37028 ft | 501 kts | 61° |
| 2026-04-30 22:35 | 42.16645 | -84.28236 | 37030 ft | 500 kts | 61° |
| 2026-04-30 22:36 | 42.24149 | -84.07087 | 37024 ft | 499 kts | 62° |
| 2026-04-30 22:37 | 42.30118 | -83.90150 | 37013 ft | 500 kts | 62° |
| 2026-04-30 22:38 | 42.36067 | -83.73175 | 37008 ft | 500 kts | 62° |
| 2026-04-30 22:39 | 42.40510 | -83.60412 | 37020 ft | 501 kts | 64° |
| 2026-04-30 22:40 | 42.46359 | -83.33240 | 37018 ft | 501 kts | 73° |
| 2026-04-30 22:41 | 42.51075 | -83.10525 | 37013 ft | 500 kts | 73° |
| 2026-04-30 22:43 | 42.56657 | -82.83308 | 36973 ft | 498 kts | 73° |
| 2026-04-30 22:44 | 42.60322 | -82.65241 | 36987 ft | 498 kts | 74° |
| 2026-04-30 22:45 | 42.63935 | -82.47264 | 35022 ft | 494 kts | 74° |
| 2026-04-30 22:45 | 42.65688 | -82.38489 | 34764 ft | 469 kts | 75° |
| 2026-04-30 22:46 | 42.67347 | -82.30160 | 34529 ft | 445 kts | 75° |
| 2026-04-30 22:47 | 42.73657 | -82.15849 | 32656 ft | 448 kts | 52° |
| 2026-04-30 22:47 | 42.77301 | -82.09033 | 31704 ft | 443 kts | 52° |
| 2026-04-30 22:48 | 42.80802 | -82.02173 | 30812 ft | 439 kts | 60° |
| 2026-04-30 22:49 | 42.85198 | -81.91524 | 29908 ft | 425 kts | 59° |
| 2026-04-30 22:49 | 42.89516 | -81.81057 | 28964 ft | 419 kts | 60° |
| 2026-04-30 22:50 | 42.95158 | -81.67318 | 27762 ft | 411 kts | 60° |
| 2026-04-30 22:51 | 42.97933 | -81.60538 | 27171 ft | 407 kts | 60° |
| 2026-04-30 22:51 | 43.00675 | -81.53821 | 26571 ft | 403 kts | 60° |
| 2026-04-30 22:52 | 43.02036 | -81.50484 | 26276 ft | 401 kts | 60° |
| 2026-04-30 22:52 | 43.04735 | -81.43850 | 25692 ft | 398 kts | 60° |
| 2026-04-30 22:53 | 43.07386 | -81.37255 | 25076 ft | 394 kts | 62° |
| 2026-04-30 22:53 | 43.09953 | -81.30688 | 24539 ft | 390 kts | 62° |
| 2026-04-30 22:53 | 43.11233 | -81.27419 | 24252 ft | 389 kts | 62° |
| 2026-04-30 22:54 | 43.13778 | -81.20907 | 23696 ft | 387 kts | 62° |
| 2026-04-30 22:55 | 43.17553 | -81.11222 | 22808 ft | 381 kts | 62° |
| 2026-04-30 22:55 | 43.19619 | -81.05909 | 22360 ft | 379 kts | 62° |
| 2026-04-30 22:56 | 43.22079 | -80.99569 | 21813 ft | 375 kts | 62° |
| 2026-04-30 22:56 | 43.25729 | -80.90137 | 21004 ft | 371 kts | 62° |
| 2026-04-30 22:57 | 43.28134 | -80.83904 | 20478 ft | 368 kts | 62° |
| 2026-04-30 22:57 | 43.30515 | -80.77721 | 19933 ft | 365 kts | 63° |
| 2026-04-30 22:58 | 43.32876 | -80.71575 | 19405 ft | 362 kts | 63° |
| 2026-04-30 22:59 | 43.36376 | -80.62441 | 18602 ft | 358 kts | 63° |
| 2026-04-30 22:59 | 43.39827 | -80.53406 | 17792 ft | 354 kts | 63° |